createdAt,value
2023-05-20T00:00:45.162Z,64.69
2023-05-20T00:01:45.153Z,64.18
2023-05-20T00:02:45.224Z,65.09
2023-05-20T00:03:45.236Z,64.69
2023-05-20T00:04:45.133Z,64.89
2023-05-20T00:05:45.139Z,64.58
2023-05-20T00:06:45.099Z,63.87
2023-05-20T00:07:45.101Z,64.89
2023-05-20T00:08:45.083Z,65.42
2023-05-20T00:09:45.136Z,65.93
2023-05-20T00:10:45.084Z,65.02
2023-05-20T00:11:45.097Z,65.62
2023-05-20T00:12:45.032Z,65.70
2023-05-20T00:13:45.027Z,65.29
2023-05-20T00:14:45.022Z,65.59
2023-05-20T00:15:45.037Z,64.69
2023-05-20T00:16:45.024Z,64.79
2023-05-20T00:17:44.990Z,64.15
2023-05-20T00:18:45.003Z,64.38
2023-05-20T00:19:44.960Z,65.53
2023-05-20T00:20:44.946Z,65.29
2023-05-20T00:21:44.947Z,65.09
2023-05-20T00:22:44.936Z,64.96
2023-05-20T00:23:44.917Z,64.69
2023-05-20T00:24:44.933Z,64.76
2023-05-20T00:25:44.896Z,64.58
2023-05-20T00:26:44.897Z,64.15
2023-05-20T00:27:44.901Z,64.15
2023-05-20T00:28:44.864Z,64.25
2023-05-20T00:29:44.881Z,64.04
2023-05-20T00:30:44.831Z,64.22
2023-05-20T00:31:44.860Z,64.32
2023-05-20T00:32:44.872Z,64.12
2023-05-20T00:33:44.821Z,64.22
2023-05-20T00:34:44.809Z,64.52
2023-05-20T00:35:44.831Z,64.52
2023-05-20T00:36:44.768Z,63.81
2023-05-20T00:37:44.773Z,63.71
2023-05-20T00:38:44.752Z,64.25
2023-05-20T00:39:44.746Z,64.02
2023-05-20T00:40:44.755Z,63.61
2023-05-20T00:41:44.709Z,64.02
2023-05-20T00:42:44.730Z,64.65
2023-05-20T00:43:44.722Z,65.06
2023-05-20T00:44:44.693Z,64.65
2023-05-20T00:45:44.743Z,64.99
2023-05-20T00:46:44.687Z,64.89
2023-05-20T00:47:44.729Z,65.62
2023-05-20T00:48:44.633Z,66.13
2023-05-20T00:49:44.627Z,65.93
2023-05-20T00:50:44.624Z,66.24
2023-05-20T00:51:44.638Z,66.24
2023-05-20T00:52:44.616Z,65.90
2023-05-20T00:53:44.595Z,66.00
2023-05-20T00:54:44.613Z,65.80
2023-05-20T00:55:44.552Z,65.90
2023-05-20T00:56:52.195Z,65.47
2023-05-20T00:57:44.529Z,66.10
2023-05-20T00:58:44.522Z,66.17
2023-05-20T00:59:44.968Z,65.97
2023-05-20T01:00:44.514Z,65.67
2023-05-20T01:01:44.538Z,65.47
2023-05-20T01:02:44.588Z,64.96
2023-05-20T01:03:44.532Z,65.47
2023-05-20T01:04:44.456Z,65.77
2023-05-20T01:05:44.435Z,65.77
2023-05-20T01:06:44.427Z,65.70
2023-05-20T01:07:44.430Z,65.26
2023-05-20T01:08:44.429Z,65.77
2023-05-20T01:09:44.408Z,65.87
2023-05-20T01:10:44.377Z,65.77
2023-05-20T01:11:44.382Z,65.56
2023-05-20T01:12:44.365Z,66.41
2023-05-20T01:13:44.360Z,65.70
2023-05-20T01:14:44.339Z,65.67
2023-05-20T01:15:44.404Z,65.97
2023-05-20T01:16:44.316Z,65.77
2023-05-20T01:17:44.343Z,65.36
2023-05-20T01:18:44.342Z,65.77
2023-05-20T01:19:44.301Z,65.90
2023-05-20T01:20:44.315Z,65.67
2023-05-20T01:21:44.260Z,66.30
2023-05-20T01:22:44.246Z,66.41
2023-05-20T01:23:44.251Z,66.58
2023-05-20T01:24:44.230Z,66.17
2023-05-20T01:25:44.230Z,66.20
2023-05-20T01:26:44.238Z,66.71
2023-05-20T01:27:44.191Z,66.47
2023-05-20T01:28:44.181Z,66.20
2023-05-20T01:29:44.188Z,66.00
2023-05-20T01:30:44.598Z,66.17
2023-05-20T01:31:44.202Z,66.38
2023-05-20T01:32:44.208Z,66.78
2023-05-20T01:33:44.146Z,66.17
2023-05-20T01:34:44.118Z,66.07
2023-05-20T01:35:44.102Z,66.27
2023-05-20T01:36:44.109Z,65.73
2023-05-20T01:37:44.087Z,65.73
2023-05-20T01:38:44.072Z,66.04
2023-05-20T01:39:44.073Z,65.67
2023-05-20T01:40:44.053Z,65.87
2023-05-20T01:41:44.035Z,66.27
2023-05-20T01:42:44.033Z,66.41
2023-05-20T01:43:44.042Z,66.91
2023-05-20T01:44:44.017Z,67.22
2023-05-20T01:45:44.014Z,66.07
2023-05-20T01:46:44.067Z,67.01
2023-05-20T01:47:44.037Z,66.91
2023-05-20T01:48:43.982Z,67.42
2023-05-20T01:49:43.984Z,66.88
2023-05-20T01:50:43.937Z,66.61
2023-05-20T01:51:43.934Z,66.47
2023-05-20T01:52:43.932Z,66.67
2023-05-20T01:53:43.920Z,66.27
2023-05-20T01:54:43.907Z,66.24
2023-05-20T01:55:43.922Z,66.38
2023-05-20T01:56:43.871Z,66.38
2023-05-20T01:57:43.857Z,66.98
2023-05-20T01:58:43.862Z,66.78
2023-05-20T01:59:43.843Z,66.47
2023-05-20T02:00:43.853Z,67.01
2023-05-20T02:01:43.905Z,66.98
2023-05-20T02:02:43.863Z,67.01
2023-05-20T02:03:43.824Z,66.30
2023-05-20T02:04:43.778Z,66.98
2023-05-20T02:05:43.824Z,66.47
2023-05-20T02:06:43.808Z,66.07
2023-05-20T02:07:43.752Z,67.08
2023-05-20T02:08:43.755Z,66.58
2023-05-20T02:09:43.757Z,66.07
2023-05-20T02:10:43.724Z,66.55
2023-05-20T02:11:43.731Z,66.14
2023-05-20T02:12:43.691Z,66.44
2023-05-20T02:13:43.682Z,66.27
2023-05-20T02:14:43.670Z,66.98
2023-05-20T02:15:43.684Z,66.91
2023-05-20T02:16:43.690Z,67.62
2023-05-20T02:17:43.784Z,67.52
2023-05-20T02:18:43.670Z,67.22
2023-05-20T02:19:43.646Z,67.11
2023-05-20T02:20:43.644Z,67.62
2023-05-20T02:21:43.593Z,67.08
2023-05-20T02:22:43.703Z,66.81
2023-05-20T02:23:43.572Z,67.52
2023-05-20T02:24:43.612Z,67.18
2023-05-20T02:25:43.589Z,67.62
2023-05-20T02:26:43.562Z,67.22
2023-05-20T02:27:43.539Z,67.49
2023-05-20T02:28:43.552Z,67.18
2023-05-20T02:29:43.506Z,66.98
2023-05-20T02:30:43.498Z,66.98
2023-05-20T02:31:43.484Z,66.88
2023-05-20T02:32:43.562Z,66.88
2023-05-20T02:33:43.522Z,66.78
2023-05-20T02:34:43.474Z,66.88
2023-05-20T02:35:43.471Z,66.88
2023-05-20T02:36:43.436Z,66.98
2023-05-20T02:37:43.418Z,67.01
2023-05-20T02:38:43.423Z,67.32
2023-05-20T02:39:43.412Z,67.42
2023-05-20T02:40:43.404Z,67.39
2023-05-20T02:41:43.385Z,66.78
2023-05-20T02:42:43.380Z,67.05
2023-05-20T02:43:43.363Z,66.85
2023-05-20T02:44:43.367Z,66.95
2023-05-20T02:45:43.766Z,66.35
2023-05-20T02:46:43.358Z,66.07
2023-05-20T02:47:43.331Z,67.18
2023-05-20T02:48:43.295Z,66.88
2023-05-20T02:49:43.294Z,66.78
2023-05-20T02:50:43.299Z,67.18
2023-05-20T02:51:43.287Z,67.18
2023-05-20T02:52:43.283Z,66.81
2023-05-20T02:53:43.240Z,67.52
2023-05-20T02:54:43.243Z,67.42
2023-05-20T02:55:43.230Z,67.72
2023-05-20T02:56:43.215Z,68.36
2023-05-20T02:57:43.232Z,67.93
2023-05-20T02:58:43.183Z,68.02
2023-05-20T02:59:43.170Z,67.82
2023-05-20T03:00:43.160Z,67.93
2023-05-20T03:01:43.211Z,67.52
2023-05-20T03:02:43.173Z,67.52
2023-05-20T03:03:43.159Z,68.02
2023-05-20T03:04:43.207Z,68.02
2023-05-20T03:05:43.113Z,68.02
2023-05-20T03:06:43.097Z,67.59
2023-05-20T03:07:43.132Z,67.18
2023-05-20T03:08:43.080Z,66.98
2023-05-20T03:09:43.108Z,66.67
2023-05-20T03:10:43.055Z,66.85
2023-05-20T03:11:43.050Z,67.39
2023-05-20T03:12:43.038Z,67.39
2023-05-20T03:13:43.056Z,67.49
2023-05-20T03:14:43.026Z,66.98
2023-05-20T03:15:43.046Z,67.39
2023-05-20T03:16:42.988Z,66.95
2023-05-20T03:17:42.996Z,66.75
2023-05-20T03:18:43.044Z,67.32
2023-05-20T03:19:42.995Z,67.42
2023-05-20T03:20:42.964Z,67.93
2023-05-20T03:21:42.924Z,67.42
2023-05-20T03:22:42.940Z,67.82
2023-05-20T03:23:42.926Z,68.33
2023-05-20T03:24:42.893Z,68.02
2023-05-20T03:25:42.922Z,67.93
2023-05-20T03:26:42.897Z,67.59
2023-05-20T03:27:42.858Z,67.62
2023-05-20T03:28:42.851Z,67.49
2023-05-20T03:29:42.842Z,67.39
2023-05-20T03:30:42.838Z,67.59
2023-05-20T03:31:42.861Z,67.89
2023-05-20T03:32:42.858Z,67.93
2023-05-20T03:33:42.793Z,68.13
2023-05-20T03:34:42.796Z,68.13
2023-05-20T03:35:42.800Z,68.13
2023-05-20T03:36:42.793Z,67.93
2023-05-20T03:37:42.759Z,67.79
2023-05-20T03:38:42.732Z,67.29
2023-05-20T03:39:42.752Z,67.29
2023-05-20T03:40:42.712Z,67.39
2023-05-20T03:41:42.720Z,67.59
2023-05-20T03:42:42.717Z,67.35
2023-05-20T03:43:42.704Z,66.88
2023-05-20T03:44:42.664Z,67.49
2023-05-20T03:45:42.656Z,67.69
2023-05-20T03:46:42.722Z,67.62
2023-05-20T03:47:42.663Z,68.02
2023-05-20T03:48:42.638Z,68.10
2023-05-20T03:49:42.624Z,67.59
2023-05-20T03:50:42.614Z,67.79
2023-05-20T03:51:42.588Z,67.59
2023-05-20T03:52:42.620Z,67.35
2023-05-20T03:53:42.575Z,67.25
2023-05-20T03:54:42.561Z,67.42
2023-05-20T03:55:42.584Z,68.02
2023-05-20T03:56:42.534Z,68.02
2023-05-20T03:57:42.539Z,68.02
2023-05-20T03:58:42.543Z,67.89
2023-05-20T03:59:42.504Z,67.82
2023-05-20T04:00:42.511Z,68.13
2023-05-20T04:01:42.495Z,68.13
2023-05-20T04:02:42.601Z,68.13
2023-05-20T04:03:42.571Z,67.93
2023-05-20T04:04:42.466Z,67.99
2023-05-20T04:05:42.450Z,67.93
2023-05-20T04:06:42.434Z,68.23
2023-05-20T04:07:42.443Z,68.13
2023-05-20T04:08:42.488Z,68.02
2023-05-20T04:09:42.388Z,68.13
2023-05-20T04:10:42.408Z,67.93
2023-05-20T04:11:42.416Z,67.89
2023-05-20T04:12:42.373Z,67.62
2023-05-20T04:13:42.360Z,67.82
2023-05-20T04:14:42.484Z,68.33
2023-05-20T04:15:42.330Z,68.10
2023-05-20T04:16:42.361Z,68.10
2023-05-20T04:17:42.329Z,67.89
2023-05-20T04:18:42.345Z,67.99
2023-05-20T04:19:42.276Z,67.79
2023-05-20T04:20:42.281Z,67.69
2023-05-20T04:21:42.274Z,67.62
2023-05-20T04:22:42.256Z,68.43
2023-05-20T04:23:42.243Z,68.10
2023-05-20T04:24:42.259Z,67.69
2023-05-20T04:25:42.309Z,67.59
2023-05-20T04:26:42.281Z,67.69
2023-05-20T04:27:42.228Z,67.99
2023-05-20T04:28:42.194Z,67.69
2023-05-20T04:29:42.189Z,68.02
2023-05-20T04:30:42.152Z,67.69
2023-05-20T04:31:42.199Z,68.13
2023-05-20T04:32:42.191Z,68.36
2023-05-20T04:33:42.118Z,68.43
2023-05-20T04:34:42.124Z,68.33
2023-05-20T04:35:42.132Z,68.13
2023-05-20T04:36:42.089Z,67.99
2023-05-20T04:37:42.081Z,67.89
2023-05-20T04:38:42.149Z,67.49
2023-05-20T04:39:42.053Z,67.59
2023-05-20T04:40:42.076Z,68.43
2023-05-20T04:41:42.053Z,68.43
2023-05-20T04:42:42.036Z,68.23
2023-05-20T04:43:42.040Z,68.13
2023-05-20T04:44:42.482Z,68.23
2023-05-20T04:45:41.996Z,68.63
2023-05-20T04:46:42.018Z,68.73
2023-05-20T04:47:42.076Z,68.23
2023-05-20T04:48:41.957Z,68.23
2023-05-20T04:49:41.945Z,68.30
2023-05-20T04:50:41.969Z,67.89
2023-05-20T04:51:41.966Z,68.30
2023-05-20T04:52:41.974Z,68.02
2023-05-20T04:53:42.766Z,68.43
2023-05-20T04:54:41.884Z,68.30
2023-05-20T04:55:41.895Z,67.89
2023-05-20T04:56:41.900Z,67.76
2023-05-20T04:57:42.597Z,67.35
2023-05-20T04:58:41.843Z,67.15
2023-05-20T04:59:41.873Z,66.85
2023-05-20T05:00:41.824Z,67.15
2023-05-20T05:01:41.906Z,67.55
2023-05-20T05:02:41.818Z,67.18
2023-05-20T05:03:41.818Z,67.76
2023-05-20T05:04:41.820Z,67.55
2023-05-20T05:05:41.811Z,67.89
2023-05-20T05:06:41.779Z,67.89
2023-05-20T05:07:41.758Z,67.89
2023-05-20T05:08:41.749Z,67.79
2023-05-20T05:09:41.742Z,67.99
2023-05-20T05:10:41.718Z,67.86
2023-05-20T05:11:41.735Z,67.66
2023-05-20T05:12:41.772Z,67.32
2023-05-20T05:13:41.705Z,67.12
2023-05-20T05:14:41.681Z,66.75
2023-05-20T05:15:41.717Z,67.05
2023-05-20T05:16:41.698Z,67.12
2023-05-20T05:17:41.727Z,66.85
2023-05-20T05:18:41.695Z,66.72
2023-05-20T05:19:41.621Z,66.75
2023-05-20T05:20:41.611Z,66.82
2023-05-20T05:21:41.621Z,67.15
2023-05-20T05:22:41.599Z,67.25
2023-05-20T05:23:41.572Z,67.55
2023-05-20T05:24:41.580Z,67.46
2023-05-20T05:25:41.566Z,67.35
2023-05-20T05:26:41.549Z,67.25
2023-05-20T05:27:41.562Z,67.46
2023-05-20T05:28:41.513Z,67.35
2023-05-20T05:29:41.517Z,67.46
2023-05-20T05:30:41.507Z,67.35
2023-05-20T05:31:41.505Z,67.46
2023-05-20T05:32:41.627Z,67.76
2023-05-20T05:33:41.483Z,67.35
2023-05-20T05:34:41.457Z,67.76
2023-05-20T05:35:41.441Z,67.96
2023-05-20T05:36:41.418Z,67.86
2023-05-20T05:37:41.432Z,67.99
2023-05-20T05:38:41.447Z,67.99
2023-05-20T05:39:41.394Z,68.23
2023-05-20T05:40:41.377Z,68.70
2023-05-20T05:41:41.383Z,68.73
2023-05-20T05:42:41.385Z,68.60
2023-05-20T05:43:41.358Z,67.96
2023-05-20T05:44:41.363Z,67.76
2023-05-20T05:45:41.326Z,67.46
2023-05-20T05:46:41.350Z,67.35
2023-05-20T05:47:41.416Z,67.32
2023-05-20T05:48:41.303Z,67.72
2023-05-20T05:49:41.308Z,66.92
2023-05-20T05:50:41.294Z,66.11
2023-05-20T05:51:41.254Z,67.02
2023-05-20T05:52:41.286Z,66.72
2023-05-20T05:53:41.251Z,67.02
2023-05-20T05:54:41.235Z,67.12
2023-05-20T05:55:41.223Z,66.72
2023-05-20T05:56:41.197Z,67.66
2023-05-20T05:57:41.192Z,67.32
2023-05-20T05:58:41.209Z,67.22
2023-05-20T05:59:41.164Z,67.22
2023-05-20T06:00:41.177Z,66.82
2023-05-20T06:01:41.171Z,66.58
2023-05-20T06:02:41.339Z,66.48
2023-05-20T06:03:41.299Z,66.08
2023-05-20T06:04:41.137Z,66.82
2023-05-20T06:05:41.097Z,67.32
2023-05-20T06:06:41.099Z,67.22
2023-05-20T06:07:41.110Z,66.92
2023-05-20T06:08:41.066Z,67.52
2023-05-20T06:09:41.073Z,67.43
2023-05-20T06:10:41.068Z,67.32
2023-05-20T06:11:41.032Z,67.02
2023-05-20T06:12:41.031Z,66.92
2023-05-20T06:13:41.049Z,67.12
2023-05-20T06:14:41.005Z,66.58
2023-05-20T06:15:40.991Z,66.78
2023-05-20T06:16:41.094Z,66.89
2023-05-20T06:17:40.987Z,65.98
2023-05-20T06:18:41.021Z,66.82
2023-05-20T06:19:41.080Z,66.11
2023-05-20T06:20:40.938Z,66.78
2023-05-20T06:21:40.918Z,66.69
2023-05-20T06:22:40.936Z,66.18
2023-05-20T06:23:40.907Z,65.78
2023-05-20T06:24:40.916Z,66.18
2023-05-20T06:25:40.910Z,66.28
2023-05-20T06:26:40.869Z,66.18
2023-05-20T06:27:40.862Z,65.47
2023-05-20T06:28:40.853Z,66.38
2023-05-20T06:29:42.448Z,66.52
2023-05-20T06:30:40.897Z,66.58
2023-05-20T06:31:40.813Z,65.98
2023-05-20T06:32:40.842Z,66.82
2023-05-20T06:33:40.794Z,67.12
2023-05-20T06:34:40.775Z,66.69
2023-05-20T06:35:40.816Z,66.78
2023-05-20T06:36:40.759Z,66.28
2023-05-20T06:37:40.861Z,65.95
2023-05-20T06:38:41.053Z,65.78
2023-05-20T06:39:40.742Z,66.15
2023-05-20T06:40:40.716Z,66.18
2023-05-20T06:41:40.720Z,66.18
2023-05-20T06:42:40.693Z,66.58
2023-05-20T06:43:40.678Z,66.08
2023-05-20T06:44:40.665Z,65.75
2023-05-20T06:45:40.669Z,65.54
2023-05-20T06:46:40.722Z,65.78
2023-05-20T06:47:40.714Z,65.98
2023-05-20T06:48:40.636Z,66.38
2023-05-20T06:49:40.616Z,66.31
2023-05-20T06:50:40.624Z,66.78
2023-05-20T06:51:40.629Z,66.38
2023-05-20T06:52:40.592Z,66.18
2023-05-20T06:53:40.595Z,66.38
2023-05-20T06:54:40.561Z,65.47
2023-05-20T06:55:40.552Z,66.08
2023-05-20T06:56:40.540Z,65.88
2023-05-20T06:57:40.552Z,65.78
2023-05-20T06:58:40.523Z,65.54
2023-05-20T06:59:40.518Z,65.75
2023-05-20T07:00:40.522Z,65.84
2023-05-20T07:01:40.534Z,65.14
2023-05-20T07:02:40.529Z,66.08
2023-05-20T07:03:40.543Z,66.18
2023-05-20T07:04:40.458Z,66.08
2023-05-20T07:05:40.459Z,66.92
2023-05-20T07:06:40.433Z,67.29
2023-05-20T07:07:40.441Z,66.99
2023-05-20T07:08:40.407Z,67.39
2023-05-20T07:09:40.417Z,66.78
2023-05-20T07:10:40.405Z,66.78
2023-05-20T07:11:40.382Z,66.78
2023-05-20T07:12:40.381Z,66.89
2023-05-20T07:13:41.014Z,66.45
2023-05-20T07:14:40.350Z,66.05
2023-05-20T07:15:40.373Z,66.15
2023-05-20T07:16:40.413Z,66.28
2023-05-20T07:17:40.399Z,66.78
2023-05-20T07:18:40.333Z,66.28
2023-05-20T07:19:40.278Z,66.78
2023-05-20T07:20:40.289Z,67.32
2023-05-20T07:21:40.276Z,67.76
2023-05-20T07:22:40.277Z,68.16
2023-05-20T07:23:40.275Z,67.93
2023-05-20T07:24:40.249Z,67.72
2023-05-20T07:25:40.221Z,66.89
2023-05-20T07:26:40.211Z,66.78
2023-05-20T07:27:40.225Z,66.75
2023-05-20T07:28:40.216Z,66.35
2023-05-20T07:29:40.170Z,66.15
2023-05-20T07:30:40.164Z,66.15
2023-05-20T07:31:40.173Z,66.05
2023-05-20T07:32:40.154Z,65.95
2023-05-20T07:33:40.146Z,66.45
2023-05-20T07:34:40.150Z,66.42
2023-05-20T07:35:40.105Z,66.05
2023-05-20T07:36:40.097Z,66.65
2023-05-20T07:37:40.092Z,66.38
2023-05-20T07:38:42.971Z,66.99
2023-05-20T07:39:41.106Z,67.09
2023-05-20T07:40:40.052Z,66.48
2023-05-20T07:41:40.050Z,66.89
2023-05-20T07:42:40.029Z,66.78
2023-05-20T07:43:40.031Z,66.75
2023-05-20T07:44:40.036Z,66.42
2023-05-20T07:45:40.038Z,65.81
2023-05-20T07:46:40.064Z,65.64
2023-05-20T07:47:40.076Z,65.95
2023-05-20T07:48:39.985Z,66.22
2023-05-20T07:49:39.983Z,65.71
2023-05-20T07:50:39.959Z,65.68
2023-05-20T07:51:39.945Z,65.71
2023-05-20T07:53:39.917Z,65.61
2023-05-20T07:54:39.904Z,65.51
2023-05-20T07:55:39.932Z,65.61
2023-05-20T07:56:39.893Z,65.38
2023-05-20T07:57:39.892Z,64.95
2023-05-20T07:58:39.857Z,64.75
2023-05-20T07:59:39.856Z,63.70
2023-05-20T08:00:39.836Z,63.64
2023-05-20T08:01:39.827Z,64.24
2023-05-20T08:02:39.924Z,63.84
2023-05-20T08:03:39.942Z,63.81
2023-05-20T08:04:39.897Z,63.93
2023-05-20T08:05:39.781Z,64.21
2023-05-20T08:06:39.800Z,64.21
2023-05-20T08:07:39.786Z,64.01
2023-05-20T08:08:39.750Z,64.21
2023-05-20T08:09:39.759Z,64.21
2023-05-20T08:10:39.764Z,63.93
2023-05-20T08:11:39.767Z,64.34
2023-05-20T08:12:39.707Z,64.14
2023-05-20T08:13:39.691Z,64.44
2023-05-20T08:14:39.698Z,64.44
2023-05-20T08:15:39.678Z,63.73
2023-05-20T08:16:39.739Z,64.54
2023-05-20T08:17:39.721Z,64.64
2023-05-20T08:18:39.740Z,63.81
2023-05-20T08:19:39.683Z,63.93
2023-05-20T08:20:39.633Z,63.81
2023-05-20T08:21:39.606Z,64.07
2023-05-20T08:22:39.593Z,64.11
2023-05-20T08:23:40.583Z,63.87
2023-05-20T08:24:39.590Z,64.07
2023-05-20T08:25:39.578Z,63.54
2023-05-20T08:26:39.566Z,63.54
2023-05-20T08:27:39.557Z,63.37
2023-05-20T08:28:39.544Z,63.47
2023-05-20T08:29:40.003Z,63.98
2023-05-20T08:30:39.503Z,64.28
2023-05-20T08:31:39.574Z,63.98
2023-05-20T08:32:39.515Z,63.34
2023-05-20T08:33:39.469Z,63.37
2023-05-20T08:34:39.463Z,63.75
2023-05-20T08:35:39.555Z,63.01
2023-05-20T08:36:39.448Z,63.01
2023-05-20T08:37:39.460Z,63.21
2023-05-20T08:38:39.421Z,61.93
2023-05-20T08:39:39.413Z,63.14
2023-05-20T08:40:39.404Z,62.54
2023-05-20T08:41:39.408Z,63.75
2023-05-20T08:42:39.371Z,63.01
2023-05-20T08:43:39.408Z,61.87
2023-05-20T08:44:39.351Z,61.87
2023-05-20T08:45:39.378Z,61.47
2023-05-20T08:46:39.353Z,61.67
2023-05-20T08:47:39.397Z,61.24
2023-05-20T08:48:39.314Z,60.77
2023-05-20T08:49:39.307Z,61.54
2023-05-20T08:50:39.314Z,60.87
2023-05-20T08:51:39.282Z,61.04
2023-05-20T08:52:39.266Z,60.51
2023-05-20T08:53:39.251Z,61.54
2023-05-20T08:54:39.255Z,60.97
2023-05-20T08:55:39.242Z,60.77
2023-05-20T08:56:39.221Z,60.97
2023-05-20T08:57:39.256Z,61.07
2023-05-20T08:58:39.195Z,61.47
2023-05-20T08:59:39.320Z,60.84
2023-05-20T09:00:39.185Z,61.74
2023-05-20T09:01:39.230Z,60.94
2023-05-20T09:02:39.195Z,60.94
2023-05-20T09:03:39.161Z,61.65
2023-05-20T09:04:39.150Z,61.01
2023-05-20T09:05:39.124Z,61.34
2023-05-20T09:06:39.127Z,60.74
2023-05-20T09:07:39.095Z,60.91
2023-05-20T09:08:39.086Z,61.21
2023-05-20T09:09:39.092Z,61.41
2023-05-20T09:10:39.091Z,60.41
2023-05-20T09:11:39.061Z,60.41
2023-05-20T09:12:39.050Z,60.78
2023-05-20T09:13:39.037Z,60.98
2023-05-20T09:14:39.017Z,60.88
2023-05-20T09:15:39.062Z,60.48
2023-05-20T09:16:39.078Z,60.11
2023-05-20T09:17:39.121Z,61.11
2023-05-20T09:18:39.018Z,60.84
2023-05-20T09:19:39.032Z,60.71
2023-05-20T09:20:38.974Z,61.34
2023-05-20T09:21:38.972Z,60.91
2023-05-20T09:22:38.927Z,61.04
2023-05-20T09:23:38.938Z,61.07
2023-05-20T09:24:38.905Z,61.57
2023-05-20T09:25:38.898Z,61.77
2023-05-20T09:26:38.937Z,62.18
2023-05-20T09:27:38.900Z,61.67
2023-05-20T09:28:38.864Z,61.14
2023-05-20T09:29:38.865Z,61.65
2023-05-20T09:30:38.856Z,61.85
2023-05-20T09:31:39.155Z,61.65
2023-05-20T09:32:38.906Z,61.24
2023-05-20T09:33:38.829Z,61.01
2023-05-20T09:34:38.803Z,61.04
2023-05-20T09:35:38.834Z,60.41
2023-05-20T09:36:38.771Z,60.71
2023-05-20T09:37:38.764Z,60.38
2023-05-20T09:38:38.770Z,60.31
2023-05-20T09:39:38.767Z,60.48
2023-05-20T09:40:38.739Z,60.48
2023-05-20T09:41:38.728Z,60.78
2023-05-20T09:42:38.704Z,60.38
2023-05-20T09:43:38.709Z,60.81
2023-05-20T09:44:38.687Z,60.31
2023-05-20T09:45:38.701Z,60.71
2023-05-20T09:46:38.740Z,61.21
2023-05-20T09:47:38.747Z,60.91
2023-05-20T09:48:38.667Z,61.44
2023-05-20T09:49:38.627Z,60.84
2023-05-20T09:50:38.644Z,61.34
2023-05-20T09:51:38.626Z,61.54
2023-05-20T09:52:38.606Z,61.04
2023-05-20T09:53:38.583Z,61.98
2023-05-20T09:54:38.571Z,62.05
2023-05-20T09:55:38.563Z,62.24
2023-05-20T09:56:38.571Z,61.94
2023-05-20T09:57:38.556Z,62.15
2023-05-20T09:58:38.550Z,61.65
2023-05-20T09:59:38.523Z,61.61
2023-05-20T10:00:38.523Z,61.65
2023-05-20T10:01:38.563Z,61.58
2023-05-20T10:02:38.583Z,60.96
2023-05-20T10:03:39.287Z,60.05
2023-05-20T10:04:38.493Z,60.85
2023-05-20T10:05:38.462Z,59.55
2023-05-20T10:06:38.469Z,59.78
2023-05-20T10:07:42.389Z,59.98
2023-05-20T10:08:38.415Z,60.05
2023-05-20T10:09:38.438Z,59.72
2023-05-20T10:10:38.393Z,59.19
2023-05-20T10:11:38.383Z,58.69
2023-05-20T10:12:38.386Z,59.29
2023-05-20T10:13:38.378Z,58.69
2023-05-20T10:14:40.292Z,58.89
2023-05-20T10:15:38.374Z,58.69
2023-05-20T10:16:38.366Z,58.39
2023-05-20T10:17:38.383Z,58.49
2023-05-20T10:18:38.309Z,58.36
2023-05-20T10:19:38.324Z,58.36
2023-05-20T10:20:38.287Z,58.49
2023-05-20T10:21:38.289Z,58.39
2023-05-20T10:22:38.293Z,58.29
2023-05-20T10:23:38.268Z,58.96
2023-05-20T10:24:38.341Z,59.19
2023-05-20T10:25:38.226Z,58.69
2023-05-20T10:26:38.260Z,58.49
2023-05-20T10:27:38.231Z,58.46
2023-05-20T10:28:38.197Z,58.86
2023-05-20T10:29:38.219Z,58.36
2023-05-20T10:30:38.417Z,57.63
2023-05-20T10:31:38.161Z,58.00
2023-05-20T10:32:38.271Z,57.70
2023-05-20T10:33:38.232Z,57.30
2023-05-20T10:34:38.127Z,57.90
2023-05-20T10:35:38.147Z,56.77
2023-05-20T10:36:38.392Z,56.74
2023-05-20T10:37:38.093Z,56.95
2023-05-20T10:38:38.092Z,56.45
2023-05-20T10:39:38.068Z,56.77
2023-05-20T10:40:38.080Z,56.67
2023-05-20T10:41:38.080Z,56.90
2023-05-20T10:42:38.063Z,57.37
2023-05-20T10:43:38.051Z,57.15
2023-05-20T10:44:38.037Z,56.27
2023-05-20T10:45:38.000Z,57.37
2023-05-20T10:46:53.927Z,56.74
2023-05-20T10:47:39.059Z,56.05
2023-05-20T10:48:38.057Z,56.77
2023-05-20T10:49:37.968Z,56.87
2023-05-20T10:50:37.962Z,56.65
2023-05-20T10:51:37.976Z,56.24
2023-05-20T10:52:37.960Z,56.05
2023-05-20T10:53:37.949Z,56.42
2023-05-20T10:54:37.903Z,56.02
2023-05-20T10:55:37.905Z,56.22
2023-05-20T10:56:37.881Z,55.72
2023-05-20T10:57:45.955Z,55.49
2023-05-20T10:58:37.861Z,56.32
2023-05-20T10:59:37.855Z,55.72
2023-05-20T11:00:38.228Z,56.22
2023-05-20T11:01:37.921Z,56.02
2023-05-20T11:02:37.865Z,56.02
2023-05-20T11:03:37.946Z,56.07
2023-05-20T11:04:37.812Z,55.07
2023-05-20T11:05:37.791Z,54.06
2023-05-20T11:06:37.776Z,54.06
2023-05-20T11:07:37.889Z,54.27
2023-05-20T11:08:37.759Z,54.17
2023-05-20T11:09:37.759Z,54.24
2023-05-20T11:10:37.737Z,53.84
2023-05-20T11:11:37.717Z,53.94
2023-05-20T11:12:37.770Z,54.04
2023-05-20T11:13:37.728Z,54.14
2023-05-20T11:14:37.719Z,53.92
2023-05-20T11:15:37.680Z,53.84
2023-05-20T11:16:37.746Z,54.06
2023-05-20T11:17:37.678Z,54.27
2023-05-20T11:18:37.677Z,54.44
2023-05-20T11:19:37.648Z,54.84
2023-05-20T11:20:37.621Z,54.14
2023-05-20T11:21:37.621Z,54.27
2023-05-20T11:22:37.651Z,54.47
2023-05-20T11:23:39.851Z,54.77
2023-05-20T11:24:37.590Z,54.14
2023-05-20T11:25:37.584Z,54.47
2023-05-20T11:26:37.555Z,54.94
2023-05-20T11:27:37.558Z,54.11
2023-05-20T11:28:37.560Z,54.02
2023-05-20T11:29:37.545Z,53.42
2023-05-20T11:30:37.711Z,53.94
2023-05-20T11:31:37.533Z,53.72
2023-05-20T11:32:37.493Z,53.52
2023-05-20T11:33:37.478Z,53.74
2023-05-20T11:34:37.491Z,52.84
2023-05-20T11:35:37.466Z,54.06
2023-05-20T11:36:37.475Z,53.84
2023-05-20T11:37:37.434Z,53.57
2023-05-20T11:38:37.437Z,54.47
2023-05-20T11:39:37.460Z,54.47
2023-05-20T11:40:49.955Z,54.24
2023-05-20T11:41:38.385Z,53.94
2023-05-20T11:42:37.408Z,53.31
2023-05-20T11:43:37.366Z,53.12
2023-05-20T11:44:37.352Z,53.64
2023-05-20T11:45:37.348Z,53.52
2023-05-20T11:46:37.512Z,53.59
2023-05-20T11:47:37.353Z,52.99
2023-05-20T11:48:37.340Z,52.69
2023-05-20T11:49:37.299Z,52.29
2023-05-20T11:50:37.285Z,53.31
2023-05-20T11:51:37.285Z,53.09
2023-05-20T11:52:37.290Z,52.89
2023-05-20T11:53:37.279Z,53.09
2023-05-20T11:54:37.254Z,53.42
2023-05-20T11:55:37.260Z,53.31
2023-05-20T11:56:37.259Z,53.31
2023-05-20T11:57:37.229Z,53.39
2023-05-20T11:58:37.231Z,53.29
2023-05-20T11:59:37.199Z,52.49
2023-05-20T12:00:49.797Z,53.92
2023-05-20T12:01:38.182Z,53.89
2023-05-20T12:02:37.236Z,54.09
2023-05-20T12:03:37.435Z,52.79
2023-05-20T12:04:37.268Z,53.59
2023-05-20T12:05:37.134Z,53.94
2023-05-20T12:06:37.122Z,53.94
2023-05-20T12:07:37.111Z,53.92
2023-05-20T12:08:37.134Z,53.69
2023-05-20T12:09:37.077Z,54.39
2023-05-20T12:10:37.193Z,53.27
2023-05-20T12:11:37.084Z,52.84
2023-05-20T12:12:37.044Z,53.66
2023-05-20T12:13:37.038Z,53.27
2023-05-20T12:14:37.091Z,53.06
2023-05-20T12:15:37.015Z,53.77
2023-05-20T12:16:37.048Z,53.89
2023-05-20T12:17:37.050Z,53.89
2023-05-20T12:18:36.981Z,53.89
2023-05-20T12:19:38.290Z,54.89
2023-05-20T12:20:37.296Z,53.89
2023-05-20T12:21:36.949Z,54.39
2023-05-20T12:22:36.950Z,53.81
2023-05-20T12:23:36.930Z,53.89
2023-05-20T12:24:36.924Z,54.49
2023-05-20T12:25:36.902Z,53.96
2023-05-20T12:26:36.922Z,54.36
2023-05-20T12:27:36.909Z,53.77
2023-05-20T12:28:36.894Z,54.29
2023-05-20T12:29:36.856Z,54.02
2023-05-20T12:30:37.019Z,54.11
2023-05-20T12:31:36.853Z,54.22
2023-05-20T12:32:36.942Z,54.49
2023-05-20T12:33:36.825Z,54.39
2023-05-20T12:34:36.813Z,54.09
2023-05-20T12:35:36.793Z,53.89
2023-05-20T12:36:36.778Z,53.89
2023-05-20T12:37:36.830Z,54.02
2023-05-20T12:38:36.788Z,54.32
2023-05-20T12:39:36.760Z,53.69
2023-05-20T12:40:37.002Z,54.49
2023-05-20T12:41:36.728Z,53.89
2023-05-20T12:42:36.734Z,54.91
2023-05-20T12:43:37.227Z,54.69
2023-05-20T12:44:36.724Z,54.19
2023-05-20T12:45:36.705Z,54.69
2023-05-20T12:46:36.715Z,53.92
2023-05-20T12:47:36.706Z,54.22
2023-05-20T12:48:36.651Z,55.02
2023-05-20T12:49:36.733Z,54.29
2023-05-20T12:50:36.941Z,54.46
2023-05-20T12:51:36.619Z,53.79
2023-05-20T12:52:36.610Z,54.39
2023-05-20T12:53:36.590Z,53.99